Time;durP1;ratioP1;P1;durP2;ratioP2;P2;SDS_P1;SDS_P2;PMS_P1;PMS_P2;Temp;Humidity;BMP_temperature;BMP_pressure;BME280_temperature;BME280_humidity;BME280_pressure;Samples;Min_cycle;Max_cycle;Signal;HPM_P1;HPM_P2
2021/09/28 00:00:31;;;;;;;7.70;6.90;;;21.00;96.70;;;;;;5075237;28;20044;-85
2021/09/28 00:03:00;;;;;;;11.27;7.55;;;21.00;96.70;;;;;;5078061;28;20133;-85
2021/09/28 00:05:29;;;;;;;9.77;7.10;;;20.90;96.70;;;;;;5077985;28;20043;-85
2021/09/28 00:07:59;;;;;;;7.88;7.07;;;20.90;96.70;;;;;;5079832;28;20127;-85
2021/09/28 00:10:27;;;;;;;8.52;6.68;;;20.80;96.70;;;;;;5069695;28;20523;-85
2021/09/28 00:12:55;;;;;;;7.65;6.85;;;20.80;96.70;;;;;;5080070;28;20394;-86
2021/09/28 00:15:24;;;;;;;7.78;6.80;;;20.90;96.70;;;;;;5077631;28;20043;-86
2021/09/28 00:17:52;;;;;;;7.72;6.93;;;20.90;96.70;;;;;;5075300;28;20046;-85
2021/09/28 00:20:23;;;;;;;9.18;7.00;;;20.90;96.70;;;;;;5075868;28;20313;-86
2021/09/28 00:22:54;;;;;;;8.32;6.18;;;20.90;96.70;;;;;;5091745;28;20051;-85
2021/09/28 00:25:24;;;;;;;7.85;6.50;;;20.90;96.70;;;;;;5093514;28;20087;-85
2021/09/28 00:27:52;;;;;;;7.97;5.90;;;20.90;96.70;;;;;;5060325;28;20130;-86
2021/09/28 00:30:20;;;;;;;7.30;6.15;;;20.80;96.70;;;;;;5080359;28;21098;-86
2021/09/28 00:32:49;;;;;;;9.20;6.45;;;20.80;96.70;;;;;;5075900;28;20047;-86
2021/09/28 00:35:17;;;;;;;8.32;6.50;;;20.80;96.70;;;;;;5064790;28;20040;-86
2021/09/28 00:37:45;;;;;;;6.20;5.60;;;20.80;96.70;;;;;;5061078;28;20036;-85
2021/09/28 00:40:14;;;;;;;6.85;6.15;;;20.80;96.70;;;;;;5075983;28;20093;-85
2021/09/28 00:43:15;;;;;;;7.35;5.75;;;20.80;96.70;;;;;;5077033;28;20062;-85
2021/09/28 00:45:43;;;;;;;7.90;5.32;;;20.70;96.70;;;;;;5078909;28;20537;-86
2021/09/28 00:48:13;;;;;;;7.43;5.53;;;20.70;96.70;;;;;;5078228;28;20113;-85
2021/09/28 00:50:42;;;;;;;9.88;6.50;;;20.60;96.70;;;;;;5064236;28;20153;-86
2021/09/28 00:53:10;;;;;;;7.85;6.07;;;20.60;96.70;;;;;;5059930;28;20048;-85
2021/09/28 00:55:39;;;;;;;6.95;6.30;;;20.60;96.70;;;;;;5075657;28;20491;-85
2021/09/28 00:58:08;;;;;;;6.97;5.38;;;20.60;96.70;;;;;;5056463;28;20043;-85
2021/09/28 01:00:39;;;;;;;6.00;5.40;;;20.60;96.70;;;;;;5076213;28;20123;-85
2021/09/28 01:03:08;;;;;;;8.10;5.70;;;20.60;96.70;;;;;;5074363;28;20058;-85
2021/09/28 01:05:37;;;;;;;7.20;5.20;;;20.60;96.70;;;;;;5088383;28;20051;-86
2021/09/28 01:08:06;;;;;;;7.45;5.43;;;20.60;96.70;;;;;;5076686;28;20052;-85
2021/09/28 01:10:35;;;;;;;6.78;5.82;;;20.70;96.70;;;;;;5065159;28;20048;-85
2021/09/28 01:13:03;;;;;;;6.47;5.03;;;20.60;96.70;;;;;;5077354;28;20040;-85
2021/09/28 01:15:32;;;;;;;6.72;5.78;;;20.60;96.70;;;;;;5074755;28;20064;-85
2021/09/28 01:18:01;;;;;;;6.57;5.68;;;20.60;96.70;;;;;;5077529;28;20037;-85
2021/09/28 01:20:30;;;;;;;6.32;5.72;;;20.70;96.70;;;;;;5077644;28;20068;-86
2021/09/28 01:23:00;;;;;;;6.43;5.47;;;20.70;96.70;;;;;;5061457;28;20534;-86
2021/09/28 01:25:31;;;;;;;6.38;5.78;;;20.50;96.70;;;;;;5077739;28;20085;-86
2021/09/28 01:27:59;;;;;;;6.25;5.65;;;20.50;96.70;;;;;;5060324;28;20052;-85
2021/09/28 01:30:28;;;;;;;6.10;5.50;;;20.60;96.70;;;;;;5077060;28;20032;-86
2021/09/28 01:32:56;;;;;;;6.75;6.05;;;20.60;96.70;;;;;;5092955;28;20133;-86
2021/09/28 01:35:25;;;;;;;6.35;5.75;;;20.60;96.70;;;;;;5076303;28;20032;-85
2021/09/28 01:37:53;;;;;;;6.43;5.50;;;20.50;96.70;;;;;;5077531;28;20028;-86
2021/09/28 01:40:23;;;;;;;6.00;5.40;;;20.50;96.70;;;;;;5073131;28;20094;-85
2021/09/28 01:42:51;;;;;;;7.45;5.53;;;20.50;96.70;;;;;;5077721;28;20068;-85
2021/09/28 01:45:20;;;;;;;7.72;6.03;;;20.40;96.70;;;;;;5073863;28;20423;-85
2021/09/28 01:47:48;;;;;;;6.22;5.63;;;20.30;96.70;;;;;;5078679;28;20040;-85
2021/09/28 01:50:16;;;;;;;6.82;5.80;;;20.10;96.70;;;;;;5078546;28;20060;-86
2021/09/28 01:53:01;;;;;;;6.10;5.50;;;20.20;96.70;;;;;;5076413;28;20489;-85
2021/09/28 01:55:31;;;;;;;7.68;6.13;;;20.30;96.70;;;;;;5092244;28;20062;-85
2021/09/28 01:58:19;;;;;;;5.60;5.10;;;20.30;96.70;;;;;;5061859;28;20238;-86
2021/09/28 02:00:48;;;;;;;6.00;5.40;;;20.20;96.70;;;;;;5094085;28;20114;-85
2021/09/28 02:03:38;;;;;;;6.20;5.03;;;20.20;96.70;;;;;;5092913;28;20044;-85
2021/09/28 02:06:06;;;;;;;5.50;4.75;;;20.20;96.70;;;;;;5062079;28;20565;-85
2021/09/28 02:08:35;;;;;;;5.20;4.78;;;20.20;96.70;;;;;;5079250;28;20036;-85
2021/09/28 02:11:06;;;;;;;6.20;4.53;;;20.00;96.70;;;;;;5078110;28;20048;-85
2021/09/28 02:13:36;;;;;;;4.90;4.40;;;20.10;96.70;;;;;;5079824;28;20035;-85
2021/09/28 02:16:06;;;;;;;4.88;4.30;;;20.20;96.70;;;;;;5081699;28;20078;-85
2021/09/28 02:18:36;;;;;;;5.10;4.65;;;20.10;96.70;;;;;;5084805;28;20427;-85
2021/09/28 02:21:05;;;;;;;5.15;4.65;;;20.00;96.70;;;;;;5079626;28;20047;-85
2021/09/28 02:23:35;;;;;;;5.07;4.63;;;20.00;96.70;;;;;;5103771;27;20059;-85
2021/09/28 02:26:06;;;;;;;4.30;3.90;;;20.00;96.70;;;;;;5102063;28;20044;-86
2021/09/28 02:28:35;;;;;;;5.82;4.40;;;19.90;96.70;;;;;;5077712;28;20063;-86
2021/09/28 02:31:03;;;;;;;4.07;3.78;;;19.90;96.70;;;;;;5101967;28;20043;-85
2021/09/28 02:33:31;;;;;;;4.75;4.22;;;20.00;96.70;;;;;;5098947;28;20469;-85
2021/09/28 02:35:59;;;;;;;4.68;3.95;;;19.90;96.70;;;;;;5062068;28;20143;-85
2021/09/28 02:38:27;;;;;;;4.60;4.18;;;19.90;96.70;;;;;;5065699;28;20048;-85
2021/09/28 02:40:56;;;;;;;4.95;4.05;;;19.90;96.70;;;;;;5064283;28;20047;-85
2021/09/28 02:43:27;;;;;;;6.57;4.45;;;19.80;96.70;;;;;;5081122;28;20144;-86
2021/09/28 02:45:57;;;;;;;8.50;5.97;;;19.80;96.70;;;;;;5082815;28;20075;-84
2021/09/28 02:48:27;;;;;;;10.00;7.15;;;19.90;96.70;;;;;;5099416;28;20493;-85
2021/09/28 02:50:56;;;;;;;11.55;6.90;;;19.90;96.70;;;;;;5083522;28;20131;-85
2021/09/28 02:53:26;;;;;;;13.15;7.93;;;19.80;96.70;;;;;;5080861;28;20505;-85
2021/09/28 02:55:56;;;;;;;16.88;9.25;;;19.80;96.70;;;;;;5077460;28;20073;-84
2021/09/28 02:58:27;;;;;;;21.42;10.07;;;19.90;96.70;;;;;;5082254;28;20043;-85
2021/09/28 03:00:56;;;;;;;15.90;10.18;;;19.80;96.70;;;;;;5085232;28;20576;-85
2021/09/28 03:03:26;;;;;;;17.60;9.45;;;19.80;96.70;;;;;;5076290;28;20510;-85
2021/09/28 03:05:55;;;;;;;16.83;9.73;;;19.70;96.70;;;;;;5098797;28;20122;-85
2021/09/28 03:08:25;;;;;;;14.10;10.20;;;19.80;96.70;;;;;;5079030;28;20048;-85
2021/09/28 03:10:54;;;;;;;12.63;9.55;;;19.90;96.70;;;;;;5061378;28;20043;-85
2021/09/28 03:13:24;;;;;;;15.98;9.98;;;20.00;96.70;;;;;;5100230;27;20492;-86
2021/09/28 03:15:57;;;;;;;18.38;9.82;;;19.90;96.70;;;;;;5081033;28;20047;-84
2021/09/28 03:18:26;;;;;;;12.35;10.02;;;19.90;96.70;;;;;;5082810;28;20036;-85
2021/09/28 03:20:56;;;;;;;15.38;10.85;;;19.90;96.70;;;;;;5083766;28;20417;-86
2021/09/28 03:23:26;;;;;;;16.23;9.63;;;19.90;96.70;;;;;;5082012;28;20039;-85
2021/09/28 03:25:58;;;;;;;12.57;9.63;;;20.00;96.70;;;;;;5082802;28;20046;-85
2021/09/28 03:28:27;;;;;;;17.02;9.95;;;19.90;96.70;;;;;;5094450;28;20043;-86
2021/09/28 03:30:59;;;;;;;12.85;9.38;;;19.90;96.70;;;;;;5079929;28;20497;-86
2021/09/28 03:33:29;;;;;;;14.55;9.65;;;19.80;96.70;;;;;;5075728;28;20117;-86
2021/09/28 03:35:58;;;;;;;13.60;8.18;;;19.80;96.70;;;;;;5075743;28;20047;-85
2021/09/28 03:38:28;;;;;;;11.60;7.88;;;19.90;96.70;;;;;;5081481;28;20042;-85
2021/09/28 03:40:57;;;;;;;11.20;8.38;;;19.80;96.70;;;;;;5079558;28;20044;-85
2021/09/28 03:43:28;;;;;;;12.35;8.50;;;19.80;96.70;;;;;;5079807;28;20139;-84
2021/09/28 03:45:59;;;;;;;16.90;9.68;;;19.90;96.70;;;;;;5099320;28;20048;-85
2021/09/28 03:48:29;;;;;;;10.07;8.38;;;19.90;96.70;;;;;;5078342;28;20055;-85
2021/09/28 03:50:59;;;;;;;10.30;7.72;;;19.80;96.70;;;;;;5079301;28;20075;-85
2021/09/28 03:53:28;;;;;;;11.43;7.50;;;19.80;96.70;;;;;;5099558;28;20051;-85
2021/09/28 03:55:58;;;;;;;11.32;8.23;;;19.80;96.70;;;;;;5079360;28;20036;-85
2021/09/28 03:58:27;;;;;;;11.40;7.38;;;19.70;96.70;;;;;;5078082;28;20036;-85
2021/09/28 04:00:58;;;;;;;11.70;7.70;;;19.50;96.70;;;;;;5081019;28;20055;-85
2021/09/28 04:03:28;;;;;;;11.60;7.88;;;19.50;96.70;;;;;;5096655;28;20141;-85
2021/09/28 04:05:57;;;;;;;18.85;7.95;;;19.50;96.70;;;;;;5063826;28;20048;-85
2021/09/28 04:08:25;;;;;;;19.98;8.45;;;19.40;96.70;;;;;;5080067;28;20051;-85
2021/09/28 04:10:53;;;;;;;10.85;7.30;;;19.40;96.70;;;;;;5064991;28;20096;-85
2021/09/28 04:13:21;;;;;;;10.38;6.95;;;19.40;96.70;;;;;;5078288;28;20057;-85
2021/09/28 04:15:49;;;;;;;13.23;7.22;;;19.50;96.70;;;;;;5080514;28;20100;-86
2021/09/28 04:18:19;;;;;;;14.57;6.90;;;19.60;96.70;;;;;;5098616;28;20040;-85
2021/09/28 04:20:48;;;;;;;18.20;6.43;;;19.50;96.70;;;;;;5098739;28;20031;-85
2021/09/28 04:23:15;;;;;;;12.18;8.05;;;19.50;96.70;;;;;;5098961;28;20104;-85
2021/09/28 04:25:51;;;;;;;7.60;6.88;;;19.50;96.70;;;;;;5063619;28;20593;-85
2021/09/28 04:28:21;;;;;;;10.43;6.65;;;19.50;96.70;;;;;;5096197;28;20035;-85
2021/09/28 04:30:50;;;;;;;21.73;7.28;;;19.50;96.70;;;;;;5083595;28;20036;-86
2021/09/28 04:33:21;;;;;;;18.77;7.13;;;19.50;96.70;;;;;;5079445;28;20658;-85
2021/09/28 04:35:50;;;;;;;14.80;7.35;;;19.40;96.70;;;;;;5081219;28;20044;-85
2021/09/28 04:38:20;;;;;;;13.20;7.30;;;19.30;96.70;;;;;;5084590;28;20135;-85
2021/09/28 04:40:49;;;;;;;18.00;7.15;;;19.30;96.70;;;;;;5085741;28;21111;-85
2021/09/28 04:43:18;;;;;;;19.27;8.13;;;19.30;96.70;;;;;;5068654;28;20050;-88
2021/09/28 04:45:48;;;;;;;18.02;6.70;;;19.30;96.70;;;;;;5085156;28;20051;-84
2021/09/28 04:48:18;;;;;;;26.13;7.38;;;19.10;96.70;;;;;;5083921;28;20073;-84
2021/09/28 04:50:52;;;;;;;16.58;6.82;;;19.10;96.70;;;;;;5083616;28;20039;-84
2021/09/28 04:53:24;;;;;;;13.05;6.30;;;19.00;96.70;;;;;;5101142;28;20493;-84
2021/09/28 04:55:56;;;;;;;18.23;6.40;;;18.90;96.70;;;;;;5086784;28;20431;-84
2021/09/28 04:58:26;;;;;;;6.93;5.47;;;18.90;96.70;;;;;;5083481;28;20047;-84
2021/09/28 05:00:56;;;;;;;9.75;6.13;;;18.90;96.70;;;;;;5086039;28;20066;-84
2021/09/28 05:03:26;;;;;;;14.20;6.28;;;18.90;96.70;;;;;;5083531;28;20047;-84
2021/09/28 05:05:58;;;;;;;19.13;6.75;;;19.00;96.70;;;;;;5079279;28;20047;-84
2021/09/28 05:08:27;;;;;;;13.82;5.65;;;18.90;96.70;;;;;;5102946;28;20122;-84
2021/09/28 05:10:55;;;;;;;18.02;6.25;;;18.90;96.70;;;;;;5083910;28;20051;-83
2021/09/28 05:13:23;;;;;;;11.18;6.35;;;18.80;96.70;;;;;;5085728;28;20036;-84
2021/09/28 05:15:50;;;;;;;13.75;6.60;;;18.70;96.70;;;;;;5085312;28;20077;-84
2021/09/28 05:18:19;;;;;;;14.27;6.28;;;18.80;96.70;;;;;;5086532;28;20534;-84
2021/09/28 05:20:47;;;;;;;11.38;6.38;;;18.70;96.70;;;;;;5083119;28;20402;-84
2021/09/28 05:23:16;;;;;;;14.20;6.32;;;18.80;96.70;;;;;;5104072;28;20040;-84
2021/09/28 05:25:44;;;;;;;15.63;6.05;;;18.90;96.70;;;;;;5103412;28;20055;-84
2021/09/28 05:28:12;;;;;;;13.98;5.90;;;18.90;96.70;;;;;;5065349;28;20055;-84
2021/09/28 05:30:44;;;;;;;13.60;5.35;;;18.90;96.70;;;;;;5103961;28;20093;-83
2021/09/28 05:33:12;;;;;;;14.35;5.57;;;18.80;96.70;;;;;;5085676;28;20043;-84
2021/09/28 05:35:40;;;;;;;20.50;6.57;;;18.80;96.70;;;;;;5088502;28;20254;-84
2021/09/28 05:38:08;;;;;;;18.65;6.65;;;18.70;96.70;;;;;;5090410;28;20122;-83
2021/09/28 05:40:37;;;;;;;18.92;6.10;;;18.70;96.70;;;;;;5102465;28;20449;-84
2021/09/28 05:43:05;;;;;;;12.07;6.07;;;18.70;96.70;;;;;;5082954;28;20483;-84
2021/09/28 05:45:33;;;;;;;14.57;6.03;;;18.80;96.70;;;;;;5084250;28;20556;-84
2021/09/28 05:48:01;;;;;;;10.85;6.05;;;19.00;96.70;;;;;;5086097;28;20044;-84
2021/09/28 05:50:30;;;;;;;17.42;7.25;;;19.10;96.70;;;;;;5068573;28;20155;-84
2021/09/28 05:52:59;;;;;;;9.85;6.45;;;19.10;96.70;;;;;;5108118;28;20032;-84
2021/09/28 05:55:27;;;;;;;9.77;6.55;;;19.20;96.70;;;;;;5090698;28;20097;-84
2021/09/28 05:57:57;;;;;;;14.02;6.68;;;19.10;96.70;;;;;;5086775;28;20123;-84
2021/09/28 06:00:25;;;;;;;7.13;6.40;;;19.10;96.70;;;;;;5074247;28;20533;-85
2021/09/28 06:02:53;;;;;;;11.25;6.40;;;19.20;96.70;;;;;;5071660;28;20101;-84
2021/09/28 06:05:21;;;;;;;12.10;6.28;;;19.10;96.70;;;;;;5075879;28;20036;-84
2021/09/28 06:07:49;;;;;;;15.63;5.80;;;19.20;96.70;;;;;;5088299;28;20059;-84
2021/09/28 06:10:17;;;;;;;12.02;5.82;;;19.20;96.70;;;;;;5108399;27;20044;-84
2021/09/28 06:12:46;;;;;;;8.90;5.68;;;19.20;96.70;;;;;;5073217;28;20147;-84
2021/09/28 06:15:15;;;;;;;8.95;6.10;;;19.20;96.70;;;;;;5088001;28;20542;-84
2021/09/28 06:17:43;;;;;;;8.98;5.78;;;19.20;96.70;;;;;;5088912;28;20045;-84
2021/09/28 06:20:12;;;;;;;6.28;5.28;;;19.20;96.70;;;;;;5088994;28;20569;-84
2021/09/28 06:22:40;;;;;;;9.70;6.53;;;19.20;96.70;;;;;;5089311;28;20066;-84
2021/09/28 06:25:08;;;;;;;8.77;6.18;;;19.20;96.70;;;;;;5087612;28;20546;-83
2021/09/28 06:27:36;;;;;;;8.23;5.70;;;19.10;96.70;;;;;;5086239;28;20035;-84
2021/09/28 06:30:05;;;;;;;7.53;5.95;;;19.10;96.70;;;;;;5088198;28;20075;-84
2021/09/28 06:32:35;;;;;;;8.57;5.78;;;19.20;96.70;;;;;;5089180;28;20105;-84
2021/09/28 06:35:06;;;;;;;8.07;6.60;;;19.30;96.70;;;;;;5105392;28;20079;-84
2021/09/28 06:37:34;;;;;;;11.00;6.40;;;19.30;96.70;;;;;;5054186;28;20141;-84
2021/09/28 06:40:04;;;;;;;12.13;6.18;;;19.40;96.70;;;;;;5106226;28;20058;-84
2021/09/28 06:42:32;;;;;;;9.43;6.45;;;19.30;96.70;;;;;;5089395;28;20509;-89
2021/09/28 06:45:00;;;;;;;8.38;6.95;;;19.30;96.70;;;;;;5067669;28;20036;-83
2021/09/28 06:47:28;;;;;;;9.07;6.60;;;19.30;96.70;;;;;;5082803;28;20038;-84
2021/09/28 06:49:58;;;;;;;7.05;6.35;;;19.30;96.70;;;;;;5105181;27;20044;-84
2021/09/28 06:52:26;;;;;;;8.07;6.20;;;19.30;96.70;;;;;;5087761;28;20075;-84
2021/09/28 06:54:56;;;;;;;7.88;6.82;;;19.40;96.70;;;;;;5088006;28;20138;-84
2021/09/28 06:57:24;;;;;;;7.70;6.65;;;19.40;96.70;;;;;;5105997;28;20047;-84
2021/09/28 06:59:52;;;;;;;10.45;7.07;;;19.40;96.70;;;;;;5086613;28;20052;-84
2021/09/28 07:02:20;;;;;;;10.32;7.50;;;19.50;96.70;;;;;;5105412;28;20047;-84
2021/09/28 07:04:49;;;;;;;9.00;6.80;;;19.50;96.70;;;;;;5103319;28;20035;-83
2021/09/28 07:07:18;;;;;;;8.50;6.45;;;19.40;96.70;;;;;;5087419;28;20042;-83
2021/09/28 07:09:47;;;;;;;10.93;7.13;;;19.40;96.70;;;;;;5105618;28;20034;-83
2021/09/28 07:12:15;;;;;;;8.63;7.70;;;19.50;96.70;;;;;;5087199;28;20067;-83
2021/09/28 07:14:43;;;;;;;19.08;8.70;;;19.50;96.70;;;;;;5088413;28;20049;-84
2021/09/28 07:17:11;;;;;;;9.18;7.95;;;19.60;96.70;;;;;;5073519;28;20043;-83
2021/09/28 07:19:40;;;;;;;9.52;7.95;;;19.60;96.70;;;;;;5087169;28;20080;-88
2021/09/28 07:22:09;;;;;;;10.13;7.00;;;19.70;96.70;;;;;;5088732;28;20051;-87
2021/09/28 07:24:39;;;;;;;8.40;6.88;;;19.90;96.70;;;;;;5090826;28;20134;-94
2021/09/28 07:27:07;;;;;;;10.95;8.63;;;19.90;96.70;;;;;;5092219;28;20055;-83
2021/09/28 07:29:35;;;;;;;11.70;7.60;;;19.90;96.70;;;;;;5069765;28;20039;-83
2021/09/28 07:32:05;;;;;;;10.27;7.72;;;20.00;96.70;;;;;;5068199;28;20058;-88
2021/09/28 07:34:33;;;;;;;11.40;8.43;;;20.00;96.70;;;;;;5069830;28;20035;-84
2021/09/28 07:37:02;;;;;;;12.30;8.30;;;20.00;96.70;;;;;;5101060;27;20059;-83
2021/09/28 07:39:48;;;;;;;12.10;7.95;;;20.00;96.70;;;;;;5104902;27;20040;-83
2021/09/28 07:42:16;;;;;;;11.77;8.73;;;20.00;96.70;;;;;;5085125;28;20031;-83
2021/09/28 07:44:46;;;;;;;10.05;8.82;;;20.00;96.70;;;;;;5104576;28;20171;-83
2021/09/28 07:47:15;;;;;;;9.75;8.15;;;20.00;96.70;;;;;;5081105;28;20401;-81
2021/09/28 07:49:43;;;;;;;11.52;9.05;;;20.10;96.70;;;;;;5084591;28;20079;-80
2021/09/28 07:52:11;;;;;;;14.70;9.73;;;20.30;96.70;;;;;;5095379;27;20091;-83
2021/09/28 07:54:40;;;;;;;27.02;11.30;;;20.20;96.70;;;;;;5081200;28;20050;-81
2021/09/28 07:57:10;;;;;;;17.63;10.43;;;20.30;96.70;;;;;;5103173;27;20051;-80
2021/09/28 07:59:38;;;;;;;15.40;10.63;;;20.40;96.70;;;;;;5104020;28;20597;-81
2021/09/28 08:02:07;;;;;;;13.52;10.30;;;20.50;96.70;;;;;;5103729;28;20039;-81
2021/09/28 08:04:37;;;;;;;11.60;9.43;;;20.60;96.70;;;;;;5083362;28;20081;-81
2021/09/28 08:07:12;;;;;;;14.10;10.57;;;20.80;96.70;;;;;;5104319;28;20571;-82
2021/09/28 08:09:41;;;;;;;12.07;10.43;;;20.90;96.70;;;;;;5084983;28;20578;-83
2021/09/28 08:12:11;;;;;;;13.98;10.60;;;21.00;96.70;;;;;;5101316;27;20040;-82
2021/09/28 08:14:39;;;;;;;14.05;11.52;;;21.10;96.70;;;;;;5083577;28;20067;-82
2021/09/28 08:17:07;;;;;;;12.10;10.82;;;21.10;96.70;;;;;;5104160;28;20043;-82
2021/09/28 08:19:39;;;;;;;13.93;12.20;;;21.20;96.70;;;;;;5085604;28;20118;-82
2021/09/28 08:22:10;;;;;;;16.55;13.10;;;21.30;96.70;;;;;;5086061;28;20043;-82
2021/09/28 08:24:42;;;;;;;19.30;14.68;;;21.20;96.70;;;;;;5099924;27;20067;-81
2021/09/28 08:30:03;;;;;;;13.77;12.07;;;21.00;96.70;;;;;;5081358;28;20139;-82
2021/09/28 08:32:31;;;;;;;14.80;12.80;;;21.00;96.70;;;;;;5104212;28;20067;-82
2021/09/28 08:34:59;;;;;;;17.85;13.48;;;21.00;96.70;;;;;;5068053;28;20048;-83
2021/09/28 08:37:28;;;;;;;14.00;12.48;;;21.20;96.70;;;;;;5085994;28;20059;-85
2021/09/28 08:39:56;;;;;;;15.05;12.80;;;21.30;96.70;;;;;;5084510;28;20040;-83
2021/09/28 08:42:27;;;;;;;15.02;13.07;;;21.10;96.70;;;;;;5085086;28;20138;-83
2021/09/28 08:44:55;;;;;;;16.42;13.15;;;21.00;96.70;;;;;;5085962;28;20032;-84
2021/09/28 08:47:38;;;;;;;16.15;13.30;;;21.10;96.70;;;;;;5086235;28;20206;-85
2021/09/28 08:50:10;;;;;;;16.58;14.00;;;21.10;96.70;;;;;;5086964;28;20489;-91
2021/09/28 08:52:39;;;;;;;18.33;15.30;;;21.20;96.70;;;;;;5065473;28;20047;-88
2021/09/28 08:55:20;;;;;;;19.38;15.40;;;21.20;96.70;;;;;;5103491;28;20493;-92
2021/09/28 08:57:51;;;;;;;19.20;15.85;;;21.30;96.70;;;;;;5086137;28;20074;-91
2021/09/28 09:00:25;;;;;;;20.17;17.08;;;21.40;96.70;;;;;;5089357;28;20067;-92
2021/09/28 09:02:54;;;;;;;21.75;17.38;;;21.50;96.70;;;;;;5087871;28;20129;-92
2021/09/28 09:05:25;;;;;;;22.15;19.23;;;21.70;96.70;;;;;;5088550;28;20050;-91
2021/09/28 09:08:01;;;;;;;20.52;15.98;;;21.70;96.70;;;;;;5102570;28;20581;-92
2021/09/28 09:10:32;;;;;;;25.23;18.77;;;21.80;96.70;;;;;;5105594;28;20101;-92
2021/09/28 09:13:02;;;;;;;19.65;16.38;;;21.80;96.70;;;;;;5085973;28;20574;-92
2021/09/28 09:15:34;;;;;;;21.23;16.42;;;21.90;96.70;;;;;;5088059;28;20027;-89
2021/09/28 09:18:04;;;;;;;23.60;17.92;;;22.00;96.70;;;;;;5087550;28;20063;-81
2021/09/28 09:20:36;;;;;;;22.02;17.67;;;22.10;96.70;;;;;;5099347;28;20503;-81
2021/09/28 09:23:25;;;;;;;19.75;17.38;;;22.20;96.70;;;;;;5080271;28;20555;-81
2021/09/28 09:26:06;;;;;;;25.23;17.85;;;22.20;96.70;;;;;;5104805;28;20047;-81
2021/09/28 09:28:37;;;;;;;20.35;16.98;;;22.20;96.70;;;;;;5084994;28;20040;-83
2021/09/28 09:31:12;;;;;;;19.98;16.00;;;22.40;96.70;;;;;;5088284;28;20120;-80
2021/09/28 09:33:42;;;;;;;17.55;15.15;;;22.50;96.70;;;;;;5102908;28;20139;-84
2021/09/28 09:36:14;;;;;;;19.70;16.50;;;22.60;96.70;;;;;;5085378;28;20366;-80
2021/09/28 09:38:44;;;;;;;16.85;14.77;;;22.70;96.70;;;;;;5082839;28;20404;-81
2021/09/28 09:41:12;;;;;;;17.52;15.30;;;22.70;96.70;;;;;;5086125;28;20497;-80
2021/09/28 09:43:43;;;;;;;18.27;15.23;;;22.80;96.70;;;;;;5105976;28;20043;-80
2021/09/28 09:46:15;;;;;;;15.73;14.10;;;22.90;96.70;;;;;;5085658;28;20089;-80
2021/09/28 09:48:44;;;;;;;17.50;14.23;;;23.00;96.70;;;;;;5087644;28;20062;-81
2021/09/28 09:51:14;;;;;;;21.35;15.77;;;23.10;96.70;;;;;;5105377;28;20439;-80
2021/09/28 09:53:51;;;;;;;19.20;15.85;;;23.30;96.70;;;;;;5106871;28;20047;-80
2021/09/28 09:56:20;;;;;;;23.58;17.35;;;23.30;96.70;;;;;;5088262;28;20719;-81
2021/09/28 09:58:50;;;;;;;18.13;15.25;;;23.40;96.70;;;;;;5088169;28;20045;-81
2021/09/28 10:01:18;;;;;;;20.25;15.90;;;23.50;96.70;;;;;;5105523;28;20700;-82
2021/09/28 10:03:46;;;;;;;19.48;16.75;;;23.60;96.70;;;;;;5088190;28;20046;-82
2021/09/28 10:06:15;;;;;;;19.98;16.95;;;23.70;96.70;;;;;;5105368;28;20048;-80
2021/09/28 10:08:45;;;;;;;19.75;16.05;;;23.80;96.70;;;;;;5086760;28;20138;-81
2021/09/28 10:11:14;;;;;;;19.48;15.60;;;23.90;96.70;;;;;;5069919;28;20062;-81
2021/09/28 10:13:47;;;;;;;16.17;14.48;;;24.00;96.70;;;;;;5087119;28;20047;-80
2021/09/28 10:16:37;;;;;;;18.92;14.80;;;24.10;96.70;;;;;;5098825;28;20043;-79
2021/09/28 10:19:24;;;;;;;15.48;12.80;;;24.20;96.70;;;;;;5105668;28;20040;-79
2021/09/28 10:21:52;;;;;;;16.58;13.40;;;24.40;96.70;;;;;;5085809;28;20079;-79
2021/09/28 10:24:31;;;;;;;14.00;12.48;;;24.50;96.70;;;;;;5085927;28;20047;-79
2021/09/28 10:27:28;;;;;;;14.77;12.85;;;24.40;96.70;;;;;;5081961;28;20473;-81
2021/09/28 10:30:05;;;;;;;14.25;11.32;;;24.50;96.70;;;;;;5071311;28;20075;-81
2021/09/28 10:32:50;;;;;;;14.25;11.20;;;24.70;96.70;;;;;;5106193;28;20044;-80
2021/09/28 10:35:19;;;;;;;11.05;9.77;;;24.90;96.70;;;;;;5104588;27;20092;-80
2021/09/28 10:37:53;;;;;;;13.02;9.52;;;25.00;96.70;;;;;;5086425;28;20061;-80
2021/09/28 10:40:47;;;;;;;11.05;9.85;;;25.20;96.70;;;;;;5103471;27;20109;-80
2021/09/28 10:43:31;;;;;;;10.57;9.48;;;25.30;96.70;;;;;;5086201;28;20071;-81
2021/09/28 10:46:03;;;;;;;11.00;9.82;;;25.30;96.70;;;;;;5100901;28;20035;-80
2021/09/28 10:48:38;;;;;;;10.48;9.25;;;25.40;96.70;;;;;;5105641;28;20043;-81
2021/09/28 10:51:10;;;;;;;11.82;9.98;;;25.40;96.70;;;;;;5084179;28;20297;-80
2021/09/28 10:53:39;;;;;;;10.10;9.02;;;25.60;96.70;;;;;;5082419;28;20052;-80
2021/09/28 10:56:09;;;;;;;10.38;8.88;;;25.60;96.70;;;;;;5085086;28;20074;-79
2021/09/28 10:59:06;;;;;;;10.32;9.10;;;25.60;96.70;;;;;;5082923;28;21567;-81
2021/09/28 11:01:35;;;;;;;11.95;9.48;;;25.70;96.70;;;;;;5033975;28;20048;-81
2021/09/28 11:04:21;;;;;;;10.40;9.30;;;25.80;96.70;;;;;;5084885;28;20127;-81
2021/09/28 11:07:08;;;;;;;10.02;8.77;;;26.00;96.70;;;;;;5090576;28;20039;-81
2021/09/28 11:09:43;;;;;;;;;;;26.10;96.70;;;;;;5084092;28;20054;-81
2021/09/28 11:12:13;;;;;;;13.98;10.50;;;26.20;96.70;;;;;;5081586;28;20375;-80
2021/09/28 11:14:41;;;;;;;10.75;9.02;;;26.30;96.70;;;;;;5083266;28;20032;-82
2021/09/28 11:17:15;;;;;;;12.57;8.77;;;26.40;96.70;;;;;;5081821;28;20051;-79
2021/09/28 11:19:46;;;;;;;10.40;9.25;;;26.50;96.70;;;;;;5083890;28;20521;-81
2021/09/28 11:22:23;;;;;;;11.27;9.07;;;26.20;96.70;;;;;;5081996;28;20040;-81
2021/09/28 11:24:52;;;;;;;9.95;8.45;;;26.10;96.70;;;;;;5083275;28;20048;-80
2021/09/28 11:27:20;;;;;;;11.82;8.57;;;26.20;96.70;;;;;;5082851;28;20064;-81
2021/09/28 11:29:54;;;;;;;10.07;9.07;;;26.20;96.70;;;;;;5083241;28;20040;-82
2021/09/28 11:32:22;;;;;;;9.38;8.57;;;26.30;96.70;;;;;;5081030;28;20120;-81
2021/09/28 11:34:58;;;;;;;9.50;8.50;;;26.40;96.70;;;;;;5081593;28;20040;-81
2021/09/28 11:37:26;;;;;;;9.03;7.97;;;26.60;96.70;;;;;;5080503;28;20051;-81
2021/09/28 11:39:56;;;;;;;8.98;8.18;;;26.50;96.70;;;;;;5083290;28;20285;-81
2021/09/28 11:42:32;;;;;;;12.48;9.20;;;26.70;96.70;;;;;;5080998;28;20048;-81
2021/09/28 11:45:00;;;;;;;7.80;7.00;;;26.80;96.70;;;;;;5082540;28;20412;-80
2021/09/28 11:47:29;;;;;;;7.63;6.93;;;27.00;96.70;;;;;;5081247;28;20040;-81
2021/09/28 11:50:02;;;;;;;8.57;7.38;;;27.00;96.70;;;;;;5083667;28;20443;-81
2021/09/28 11:52:34;;;;;;;8.43;7.47;;;27.20;96.70;;;;;;5086068;28;20116;-82
2021/09/28 11:55:03;;;;;;;8.40;7.60;;;27.30;96.70;;;;;;5103694;28;20088;-80
2021/09/28 11:57:31;;;;;;;8.32;7.63;;;27.40;96.70;;;;;;5099631;27;20039;-81
2021/09/28 12:00:05;;;;;;;8.52;7.57;;;27.30;96.70;;;;;;5085074;28;20570;-81
2021/09/28 12:02:39;;;;;;;8.88;7.97;;;27.50;96.70;;;;;;5087806;28;20059;-81
2021/09/28 12:05:34;;;;;;;8.25;7.47;;;27.70;96.70;;;;;;5084412;28;20052;-81
2021/09/28 12:08:03;;;;;;;9.02;8.13;;;27.90;96.70;;;;;;5103071;28;20392;-81
2021/09/28 12:10:37;;;;;;;9.05;8.13;;;27.80;96.70;;;;;;5102845;28;20695;-81
2021/09/28 12:13:21;;;;;;;8.63;7.72;;;27.80;96.70;;;;;;5086042;28;20054;-80
2021/09/28 12:16:08;;;;;;;8.75;7.85;;;27.90;96.70;;;;;;5103735;28;20043;-81
2021/09/28 12:18:37;;;;;;;7.78;6.97;;;27.80;96.70;;;;;;5085865;28;20048;-81
2021/09/28 12:21:26;;;;;;;8.55;7.72;;;27.70;96.70;;;;;;5083155;28;20036;-81
2021/09/28 12:24:18;;;;;;;7.95;7.25;;;28.00;96.70;;;;;;5103214;28;20098;-81
2021/09/28 12:26:49;;;;;;;7.97;7.22;;;28.30;96.70;;;;;;5068454;28;20035;-81
2021/09/28 12:29:20;;;;;;;7.85;7.05;;;28.40;96.70;;;;;;5083823;28;20751;-81
2021/09/28 12:31:48;;;;;;;7.47;6.72;;;28.50;96.70;;;;;;5102517;28;20043;-81
2021/09/28 12:34:17;;;;;;;7.25;6.18;;;28.30;96.70;;;;;;5083660;28;20233;-81
2021/09/28 12:36:47;;;;;;;6.13;5.55;;;28.20;96.70;;;;;;5063635;28;20035;-80
2021/09/28 12:39:25;;;;;;;6.82;5.60;;;28.20;95.80;;;;;;5067545;28;20036;-80
2021/09/28 12:42:01;;;;;;;7.07;5.90;;;28.30;96.00;;;;;;5085150;28;20127;-80
2021/09/28 12:44:30;;;;;;;6.28;5.68;;;28.40;96.60;;;;;;5099862;27;20051;-80
2021/09/28 12:46:59;;;;;;;6.15;5.55;;;28.60;96.30;;;;;;5100614;28;20035;-80
2021/09/28 12:49:31;;;;;;;6.53;5.85;;;28.70;96.00;;;;;;5100794;28;20189;-80
2021/09/28 12:52:01;;;;;;;5.90;5.40;;;28.70;96.20;;;;;;5102904;28;20059;-80
2021/09/28 12:54:30;;;;;;;6.30;5.70;;;28.80;95.10;;;;;;5066284;28;20100;-80
2021/09/28 12:56:58;;;;;;;6.05;5.50;;;28.80;94.90;;;;;;5084449;28;20044;-80
2021/09/28 12:59:27;;;;;;;6.13;5.35;;;29.00;94.00;;;;;;5101964;28;20098;-80